Time;durP1;ratioP1;P1;durP2;ratioP2;P2;SDS_P1;SDS_P2;PMS_P1;PMS_P2;Temp;Humidity;BMP_temperature;BMP_pressure;BME280_temperature;BME280_humidity;BME280_pressure;Samples;Min_cycle;Max_cycle;Signal;HPM_P1;HPM_P2
2023/04/05 00:02:12;;;;;;;;;;;12.70;73.70;;;;;;5115405;28;19904;-77
2023/04/05 00:04:48;;;;;;;;;;;12.70;73.70;;;;;;5114963;28;19903;-78
2023/04/05 00:07:16;;;;;;;;;;;12.70;73.70;;;;;;5115250;28;19903;-78
2023/04/05 00:09:42;;;;;;;;;;;12.70;73.60;;;;;;5114378;28;19912;-78
2023/04/05 00:12:07;;;;;;;;;;;12.80;73.70;;;;;;5114101;28;19915;-78
2023/04/05 00:14:33;;;;;;;;;;;12.70;73.60;;;;;;5096573;28;19904;-78
2023/04/05 00:16:58;;;;;;;;;;;12.70;73.60;;;;;;5115105;28;19904;-78
2023/04/05 00:19:24;;;;;;;;;;;12.70;73.60;;;;;;5113863;28;20246;-78
2023/04/05 00:21:49;;;;;;;;;;;12.70;73.60;;;;;;5114570;28;20353;-78
2023/04/05 00:24:15;;;;;;;;;;;12.70;73.60;;;;;;5096629;28;19910;-79
2023/04/05 00:26:42;;;;;;;;;;;12.70;73.50;;;;;;5114131;28;19915;-79
2023/04/05 00:29:08;;;;;;;;;;;12.70;73.60;;;;;;5095753;28;19916;-78
2023/04/05 00:31:33;;;;;;;;;;;12.70;73.60;;;;;;5114531;28;20364;-78
2023/04/05 00:33:59;;;;;;;;;;;12.70;73.50;;;;;;5114227;28;20392;-78
2023/04/05 00:36:25;;;;;;;;;;;12.70;73.50;;;;;;5114173;28;19990;-79
2023/04/05 00:38:51;;;;;;;;;;;12.70;73.50;;;;;;5114316;28;20406;-79
2023/04/05 00:41:17;;;;;;;;;;;12.70;73.50;;;;;;5114101;28;19908;-78
2023/04/05 00:43:42;;;;;;;;;;;12.70;73.50;;;;;;5114515;28;20006;-78
2023/04/05 00:46:08;;;;;;;;;;;12.70;73.50;;;;;;5114138;28;19915;-78
2023/04/05 00:48:34;;;;;;;;;;;12.70;73.50;;;;;;5113807;28;20014;-78
2023/04/05 00:51:00;;;;;;;;;;;12.70;73.50;;;;;;5114322;28;19951;-78
2023/04/05 00:53:28;;;;;;;;;;;12.70;74.00;;;;;;5114065;28;19908;-78
2023/04/05 00:55:54;;;;;;;;;;;12.70;73.50;;;;;;5115914;28;19962;-77
2023/04/05 00:58:21;;;;;;;;;;;12.70;73.50;;;;;;5118573;28;19908;-77
2023/04/05 01:01:05;;;;;;;;;;;12.70;73.50;;;;;;5117608;28;19952;-77
2023/04/05 01:03:33;;;;;;;;;;;12.70;73.50;;;;;;5117866;28;19939;-78
2023/04/05 01:06:07;;;;;;;;;;;12.70;73.40;;;;;;5117519;28;19914;-78
2023/04/05 01:08:38;;;;;;;;;;;12.70;73.40;;;;;;5098969;28;19919;-77
2023/04/05 01:11:05;;;;;;;;;;;12.70;73.40;;;;;;5117893;28;19912;-78
2023/04/05 01:13:31;;;;;;;;;;;12.70;73.40;;;;;;5099810;28;19908;-78
2023/04/05 01:15:56;;;;;;;;;;;12.70;73.40;;;;;;5099462;28;19914;-78
2023/04/05 01:18:23;;;;;;;;;;;12.70;73.40;;;;;;5117561;28;20373;-77
2023/04/05 01:20:53;;;;;;;;;;;12.70;73.40;;;;;;5117336;28;19908;-77
2023/04/05 01:23:45;;;;;;;;;;;12.70;73.30;;;;;;5117972;28;20414;-78
2023/04/05 01:26:20;;;;;;;;;;;12.70;73.30;;;;;;5112328;28;19960;-78
2023/04/05 01:28:57;;;;;;;;;;;12.70;73.30;;;;;;5117016;28;20010;-78
2023/04/05 01:31:32;;;;;;;;;;;12.60;73.20;;;;;;5117660;28;19904;-78
2023/04/05 01:34:01;;;;;;;;;;;12.70;73.30;;;;;;5099281;28;19908;-78
2023/04/05 01:36:30;;;;;;;;;;;12.70;73.30;;;;;;5117572;28;20349;-77
2023/04/05 01:38:56;;;;;;;;;;;12.70;73.30;;;;;;5117379;28;20325;-79
2023/04/05 01:41:22;;;;;;;;;;;12.70;73.30;;;;;;5117505;28;20402;-77
2023/04/05 01:43:48;;;;;;;;;;;12.70;73.20;;;;;;5117039;28;19904;-78
2023/04/05 01:46:13;;;;;;;;;;;12.70;73.30;;;;;;5117476;28;19949;-77
2023/04/05 01:48:39;;;;;;;;;;;12.70;73.20;;;;;;5117455;28;19915;-78
2023/04/05 01:51:04;;;;;;;;;;;12.70;73.30;;;;;;5117557;28;20254;-78
2023/04/05 01:53:30;;;;;;;;;;;12.70;73.20;;;;;;5116541;28;20010;-78
2023/04/05 01:56:00;;;;;;;;;;;12.70;73.20;;;;;;5117280;28;19923;-79
2023/04/05 01:58:25;;;;;;;;;;;12.70;73.20;;;;;;5116991;28;19904;-77
2023/04/05 02:00:52;;;;;;;;;;;12.60;73.10;;;;;;5117382;28;19957;-78
2023/04/05 02:03:18;;;;;;;;;;;12.70;73.20;;;;;;5117039;28;19915;-78
2023/04/05 02:05:43;;;;;;;;;;;12.70;73.10;;;;;;5117008;28;19904;-78
2023/04/05 02:08:09;;;;;;;;;;;12.70;73.10;;;;;;5116647;28;19903;-78
2023/04/05 02:10:34;;;;;;;;;;;12.60;73.10;;;;;;5116224;28;20361;-77
2023/04/05 02:13:00;;;;;;;;;;;12.60;73.30;;;;;;5116403;28;20350;-77
2023/04/05 02:15:25;;;;;;;;;;;12.70;73.10;;;;;;5117115;28;19910;-77
2023/04/05 02:17:52;;;;;;;;;;;12.70;73.10;;;;;;5116661;28;19904;-78
2023/04/05 02:20:18;;;;;;;;;;;12.70;73.10;;;;;;5116412;28;20361;-77
2023/04/05 02:22:45;;;;;;;;;;;12.70;73.10;;;;;;5116975;28;19908;-78
2023/04/05 02:25:11;;;;;;;;;;;12.60;73.00;;;;;;5115923;28;19915;-78
2023/04/05 02:27:37;;;;;;;;;;;12.70;73.10;;;;;;5115300;28;19914;-78
2023/04/05 02:30:03;;;;;;;;;;;12.60;73.00;;;;;;5115602;28;19916;-77
2023/04/05 02:32:28;;;;;;;;;;;12.60;73.10;;;;;;5116745;28;19907;-78
2023/04/05 02:34:54;;;;;;;;;;;12.70;73.10;;;;;;5115986;28;19912;-78
2023/04/05 02:37:20;;;;;;;;;;;12.60;73.00;;;;;;5097306;28;19956;-78
2023/04/05 02:39:45;;;;;;;;;;;12.60;73.00;;;;;;5116226;28;20417;-78
2023/04/05 02:42:11;;;;;;;;;;;12.70;73.00;;;;;;5115624;28;19907;-78
2023/04/05 02:44:36;;;;;;;;;;;12.70;73.00;;;;;;5116315;28;19910;-77
2023/04/05 02:47:02;;;;;;;;;;;12.60;72.90;;;;;;5116282;28;20049;-77
2023/04/05 02:49:28;;;;;;;;;;;12.70;73.00;;;;;;5116027;28;19916;-78
2023/04/05 02:51:54;;;;;;;;;;;12.60;72.90;;;;;;5097897;28;19911;-78
2023/04/05 02:54:20;;;;;;;;;;;12.60;72.90;;;;;;5115608;28;19907;-78
2023/04/05 02:56:46;;;;;;;;;;;12.70;72.90;;;;;;5115725;28;19999;-77
2023/04/05 02:59:12;;;;;;;;;;;12.60;72.90;;;;;;5115689;28;19908;-77
2023/04/05 03:01:42;;;;;;;;;;;12.60;72.90;;;;;;5115682;28;19908;-76
2023/04/05 03:04:10;;;;;;;;;;;12.60;72.90;;;;;;5115776;28;19907;-78
2023/04/05 03:06:37;;;;;;;;;;;12.60;72.90;;;;;;5115504;28;20372;-78
2023/04/05 03:09:03;;;;;;;;;;;12.60;72.90;;;;;;5097295;28;20015;-76
2023/04/05 03:11:29;;;;;;;;;;;12.60;72.90;;;;;;5115592;28;20361;-78
2023/04/05 03:13:54;;;;;;;;;;;12.60;72.90;;;;;;5107161;28;19914;-78
2023/04/05 03:16:21;;;;;;;;;;;12.70;72.90;;;;;;5116030;28;19907;-78
2023/04/05 03:18:47;;;;;;;;;;;12.60;72.90;;;;;;5114774;28;20022;-78
2023/04/05 03:21:16;;;;;;;;;;;12.70;72.90;;;;;;5115245;28;19930;-77
2023/04/05 03:23:42;;;;;;;;;;;12.60;72.90;;;;;;5115127;28;19972;-78
2023/04/05 03:26:09;;;;;;;;;;;12.60;72.80;;;;;;5115852;28;19911;-79
2023/04/05 03:28:34;;;;;;;;;;;12.60;72.80;;;;;;5097430;28;19915;-78
2023/04/05 03:31:00;;;;;;;;;;;12.60;72.80;;;;;;5114889;28;19914;-78
2023/04/05 03:33:25;;;;;;;;;;;12.70;72.80;;;;;;5114856;28;20356;-78
2023/04/05 03:35:51;;;;;;;;;;;12.60;72.80;;;;;;5114626;28;20003;-78
2023/04/05 03:38:16;;;;;;;;;;;12.60;72.80;;;;;;5114892;28;19908;-78
2023/04/05 03:40:42;;;;;;;;;;;12.70;72.80;;;;;;5114990;28;19961;-78
2023/04/05 03:43:07;;;;;;;;;;;12.60;72.80;;;;;;5094935;28;19904;-79
2023/04/05 03:45:33;;;;;;;;;;;12.60;72.80;;;;;;5101337;28;19904;-78
2023/04/05 03:47:59;;;;;;;;;;;12.70;72.80;;;;;;5115377;28;19904;-77
2023/04/05 03:50:27;;;;;;;;;;;12.70;72.70;;;;;;5114573;28;19924;-77
2023/04/05 03:52:53;;;;;;;;;;;12.70;72.80;;;;;;5096758;28;19910;-78
2023/04/05 03:55:19;;;;;;;;;;;12.70;72.80;;;;;;5114735;28;20246;-78
2023/04/05 03:57:45;;;;;;;;;;;12.70;72.70;;;;;;5115089;28;19907;-78
2023/04/05 04:00:13;;;;;;;;;;;12.70;72.70;;;;;;5114196;28;19908;-76
2023/04/05 04:02:42;;;;;;;;;;;12.70;73.30;;;;;;5114796;28;20360;-77
2023/04/05 04:05:08;;;;;;;;;;;12.70;72.60;;;;;;5114468;28;19961;-77
2023/04/05 04:07:34;;;;;;;;;;;12.70;72.60;;;;;;5114847;28;19903;-78
2023/04/05 04:09:59;;;;;;;;;;;12.70;72.60;;;;;;5115011;28;20356;-78
2023/04/05 04:12:25;;;;;;;;;;;12.80;72.60;;;;;;5114937;28;19911;-78
2023/04/05 04:14:51;;;;;;;;;;;12.70;72.60;;;;;;5113384;28;20269;-77
2023/04/05 04:17:36;;;;;;;;;;;12.70;72.50;;;;;;5112942;28;19907;-78
2023/04/05 04:20:07;;;;;;;;;;;12.80;72.60;;;;;;5115019;28;20418;-77
2023/04/05 04:22:32;;;;;;;;;;;12.80;72.50;;;;;;5097147;28;19942;-78
2023/04/05 04:25:03;;;;;;;;;;;12.80;72.50;;;;;;5114631;28;19967;-77
2023/04/05 04:27:29;;;;;;;;;;;12.80;72.50;;;;;;5113300;28;19915;-78
2023/04/05 04:30:00;;;;;;;;;;;12.80;72.50;;;;;;5113682;28;19912;-78
2023/04/05 04:32:46;;;;;;;;;;;12.90;72.50;;;;;;5114369;28;20061;-78
2023/04/05 04:35:14;;;;;;;;;;;12.90;72.50;;;;;;5113272;28;20266;-77
2023/04/05 04:37:46;;;;;;;;;;;12.90;72.50;;;;;;5105804;28;20452;-78
2023/04/05 04:40:17;;;;;;;;;;;12.90;72.40;;;;;;5093080;28;19904;-79
2023/04/05 04:42:45;;;;;;;;;;;12.90;72.30;;;;;;5095727;28;19915;-77
2023/04/05 04:45:17;;;;;;;;;;;13.00;72.30;;;;;;5112887;28;19943;-78
2023/04/05 04:47:47;;;;;;;;;;;13.00;72.30;;;;;;5096556;28;19904;-77
2023/04/05 04:50:14;;;;;;;;;;;13.00;74.40;;;;;;5111928;28;20289;-76
2023/04/05 04:52:40;;;;;;;;;;;13.10;74.90;;;;;;5094322;28;19908;-76
2023/04/05 04:55:12;;;;;;;;;;;13.20;74.60;;;;;;5095453;28;19973;-76
2023/04/05 04:57:38;;;;;;;;;;;13.30;74.10;;;;;;5105352;28;20366;-77
2023/04/05 05:00:10;;;;;;;;;;;13.30;73.80;;;;;;5108955;28;19914;-82
2023/04/05 05:02:36;;;;;;;;;;;13.30;73.70;;;;;;5114571;28;19949;-76
2023/04/05 05:05:03;;;;;;;;;;;13.30;73.40;;;;;;5113498;28;19916;-80
2023/04/05 05:07:28;;;;;;;;;;;13.30;73.70;;;;;;5095624;28;20318;-79
2023/04/05 05:09:54;;;;;;;;;;;13.30;74.10;;;;;;5113516;28;19916;-77
2023/04/05 05:12:20;;;;;;;;;;;13.40;74.10;;;;;;5113316;28;19995;-79
2023/04/05 05:14:46;;;;;;;;;;;13.40;73.90;;;;;;5113576;28;20037;-78
2023/04/05 05:17:11;;;;;;;;;;;13.40;73.70;;;;;;5113362;28;19908;-79
2023/04/05 05:19:37;;;;;;;;;;;13.40;73.70;;;;;;5113377;28;19914;-81
2023/04/05 05:22:02;;;;;;;;;;;13.40;73.50;;;;;;5113116;28;19915;-77
2023/04/05 05:24:28;;;;;;;;;;;13.50;73.40;;;;;;5094823;28;20353;-81
2023/04/05 05:26:53;;;;;;;;;;;13.50;73.40;;;;;;5115934;28;19904;-81
2023/04/05 05:29:19;;;;;;;;;;;13.50;73.30;;;;;;5111938;28;19918;-84
2023/04/05 05:31:45;;;;;;;;;;;13.60;75.20;;;;;;5096075;28;19904;-77
2023/04/05 05:34:10;;;;;;;;;;;13.70;79.10;;;;;;5105216;28;19994;-81
2023/04/05 05:36:36;;;;;;;;;;;13.90;77.70;;;;;;5113399;28;19911;-77
2023/04/05 05:39:04;;;;;;;;;;;14.10;76.50;;;;;;5113070;28;19907;-77
2023/04/05 05:41:30;;;;;;;;;;;14.20;75.70;;;;;;5095672;28;19915;-82
2023/04/05 05:43:55;;;;;;;;;;;14.30;75.10;;;;;;5117377;28;19907;-83
2023/04/05 05:46:21;;;;;;;;;;;14.30;76.20;;;;;;5099202;28;20340;-83
2023/04/05 05:48:46;;;;;;;;;;;14.40;76.10;;;;;;5117376;28;19912;-78
2023/04/05 05:51:12;;;;;;;;;;;14.50;75.80;;;;;;5117698;28;19914;-80
2023/04/05 05:53:38;;;;;;;;;;;14.60;75.20;;;;;;5098543;28;19904;-83
2023/04/05 05:56:04;;;;;;;;;;;14.70;74.90;;;;;;5117076;28;19919;-83
2023/04/05 05:58:30;;;;;;;;;;;14.80;74.70;;;;;;5117068;28;19911;-85
2023/04/05 06:00:56;;;;;;;;;;;14.80;74.50;;;;;;5116840;28;19907;-79
2023/04/05 06:03:22;;;;;;;;;;;14.80;74.20;;;;;;5117105;28;20007;-83
2023/04/05 06:05:52;;;;;;;;;;;14.90;74.20;;;;;;5116935;28;19904;-79
2023/04/05 06:08:17;;;;;;;;;;;15.00;74.20;;;;;;5098625;28;19914;-76
2023/04/05 06:10:43;;;;;;;;;;;15.00;74.00;;;;;;5098357;28;21028;-81
2023/04/05 06:13:08;;;;;;;;;;;15.00;74.00;;;;;;5116692;28;19915;-84
2023/04/05 06:15:34;;;;;;;;;;;15.10;73.90;;;;;;5116727;28;20326;-85
2023/04/05 06:18:00;;;;;;;;;;;15.10;73.80;;;;;;5116791;28;20361;-88
2023/04/05 06:20:26;;;;;;;;;;;15.10;73.60;;;;;;5116652;28;19958;-81
2023/04/05 06:22:51;;;;;;;;;;;15.10;73.40;;;;;;5098343;28;20345;-86
2023/04/05 06:25:16;;;;;;;;;;;15.20;73.30;;;;;;5092195;28;19958;-83
2023/04/05 06:27:42;;;;;;;;;;;15.10;73.20;;;;;;5096270;28;19907;-78
2023/04/05 06:30:08;;;;;;;;;;;15.20;73.10;;;;;;5096180;28;19919;-78
2023/04/05 06:32:33;;;;;;;;;;;15.10;73.10;;;;;;5116753;28;20242;-86
2023/04/05 06:34:59;;;;;;;;;;;15.20;73.20;;;;;;5098986;28;19984;-85
2023/04/05 06:37:25;;;;;;;;;;;15.10;73.10;;;;;;5116320;28;19903;-85
2023/04/05 06:39:50;;;;;;;;;;;15.20;73.00;;;;;;5098212;28;19915;-85
2023/04/05 06:42:16;;;;;;;;;;;15.20;73.00;;;;;;5115619;28;19907;-83
2023/04/05 06:44:41;;;;;;;;;;;15.20;72.90;;;;;;5105602;28;19912;-79
2023/04/05 06:47:07;;;;;;;;;;;15.30;72.90;;;;;;5088639;28;19931;-86
2023/04/05 06:49:32;;;;;;;;;;;15.30;72.80;;;;;;5100954;28;19912;-81
2023/04/05 06:51:58;;;;;;;;;;;15.30;72.70;;;;;;5110056;28;19908;-84
2023/04/05 06:54:23;;;;;;;;;;;15.40;73.10;;;;;;5096686;28;19904;-85
2023/04/05 06:56:50;;;;;;;;;;;15.40;72.50;;;;;;5115783;28;19916;-78
2023/04/05 06:59:15;;;;;;;;;;;15.40;72.40;;;;;;5119102;28;19904;-79
2023/04/05 07:01:41;;;;;;;;;;;15.40;72.30;;;;;;5098839;28;19961;-87
2023/04/05 07:04:06;;;;;;;;;;;15.50;72.30;;;;;;5116540;28;20253;-76
2023/04/05 07:06:34;;;;;;;;;;;15.40;72.70;;;;;;5115574;28;20365;-78
2023/04/05 07:09:00;;;;;;;;;;;15.40;72.10;;;;;;5111728;28;19949;-79
2023/04/05 07:11:26;;;;;;;;;;;15.40;72.10;;;;;;5115833;28;19998;-68
2023/04/05 07:13:52;;;;;;;;;;;15.40;72.00;;;;;;5115715;28;19946;-70
2023/04/05 07:16:21;;;;;;;;;;;15.40;72.00;;;;;;5097048;28;19908;-69
2023/04/05 07:18:47;;;;;;;;;;;15.40;72.00;;;;;;5115621;28;19908;-70
2023/04/05 07:21:13;;;;;;;;;;;15.40;72.00;;;;;;5115346;28;19930;-68
2023/04/05 07:23:39;;;;;;;;;;;15.40;72.00;;;;;;5111991;28;20002;-70
2023/04/05 07:26:06;;;;;;;;;;;15.40;72.00;;;;;;5115018;28;20386;-71
2023/04/05 07:28:32;;;;;;;;;;;15.40;71.90;;;;;;5115645;28;19926;-69
2023/04/05 07:30:57;;;;;;;;;;;15.40;71.90;;;;;;5115315;28;19908;-73
2023/04/05 07:33:23;;;;;;;;;;;15.50;71.80;;;;;;5114626;28;19915;-73
2023/04/05 07:35:52;;;;;;;;;;;15.50;71.80;;;;;;5105679;28;19957;-74
2023/04/05 07:38:18;;;;;;;;;;;15.60;72.80;;;;;;5112325;28;19907;-72
2023/04/05 07:40:43;;;;;;;;;;;15.60;73.20;;;;;;5107587;28;19904;-76
2023/04/05 07:43:09;;;;;;;;;;;15.70;73.80;;;;;;5085645;28;19954;-76
2023/04/05 07:45:34;;;;;;;;;;;15.80;73.60;;;;;;5109348;28;20272;-75
2023/04/05 07:48:00;;;;;;;;;;;15.90;73.30;;;;;;5108151;28;19952;-77
2023/04/05 07:50:26;;;;;;;;;;;15.90;73.00;;;;;;5113570;28;20281;-78
2023/04/05 07:52:51;;;;;;;;;;;16.00;72.70;;;;;;5096604;28;19908;-78
2023/04/05 07:55:17;;;;;;;;;;;16.00;72.50;;;;;;5095392;28;20404;-81
2023/04/05 07:57:42;;;;;;;;;;;16.00;72.40;;;;;;5114473;28;19915;-78
2023/04/05 08:00:12;;;;;;;;;;;16.00;72.30;;;;;;5114386;28;19914;-80
2023/04/05 08:02:37;;;;;;;;;;;16.00;72.20;;;;;;5114976;28;20455;-79
2023/04/05 08:05:03;;;;;;;;;;;16.00;72.10;;;;;;5096033;28;19968;-80
2023/04/05 08:07:29;;;;;;;;;;;16.00;72.00;;;;;;5113310;28;20332;-85
2023/04/05 08:09:56;;;;;;;;;;;16.00;72.00;;;;;;5114400;28;19921;-83
2023/04/05 08:12:22;;;;;;;;;;;16.00;71.90;;;;;;5095691;28;20003;-85
2023/04/05 08:14:48;;;;;;;;;;;16.00;71.80;;;;;;5096124;28;19964;-84
2023/04/05 08:17:15;;;;;;;;;;;16.10;71.90;;;;;;5109167;28;19908;-83
2023/04/05 08:19:40;;;;;;;;;;;16.00;71.80;;;;;;5102507;28;19912;-85
2023/04/05 08:22:06;;;;;;;;;;;16.10;71.80;;;;;;5084167;28;20392;-84
2023/04/05 08:24:31;;;;;;;;;;;16.00;71.70;;;;;;5101026;28;19950;-80
2023/04/05 08:26:57;;;;;;;;;;;16.00;71.60;;;;;;5102774;28;19912;-87
2023/04/05 08:29:22;;;;;;;;;;;16.10;71.60;;;;;;5095313;28;19916;-82
2023/04/05 08:31:48;;;;;;;;;;;16.10;71.50;;;;;;5098184;28;19911;-84
2023/04/05 08:34:14;;;;;;;;;;;16.10;71.50;;;;;;5083177;28;19923;-78
2023/04/05 08:36:40;;;;;;;;;;;16.10;71.40;;;;;;5100918;28;19950;-85
2023/04/05 08:39:05;;;;;;;;;;;16.20;71.40;;;;;;5104531;28;20368;-84
2023/04/05 08:41:35;;;;;;;;;;;16.30;71.40;;;;;;5105325;28;19947;-85
2023/04/05 08:44:02;;;;;;;;;;;16.30;71.20;;;;;;5082850;28;20250;-86
2023/04/05 08:46:32;;;;;;;;;;;16.40;71.20;;;;;;5085564;28;19907;-85
2023/04/05 08:48:58;;;;;;;;;;;16.40;71.00;;;;;;5085755;28;19926;-78
2023/04/05 08:51:27;;;;;;;;;;;16.40;70.90;;;;;;5104575;28;20002;-79
2023/04/05 08:53:53;;;;;;;;;;;16.50;70.80;;;;;;5104308;28;19960;-87
2023/04/05 08:56:20;;;;;;;;;;;16.40;70.70;;;;;;5082988;28;19920;-84
2023/04/05 08:58:51;;;;;;;;;;;16.40;70.60;;;;;;5094126;28;19953;-88
2023/04/05 09:01:18;;;;;;;;;;;16.40;70.60;;;;;;5113528;28;20369;-89
2023/04/05 09:03:44;;;;;;;;;;;16.40;70.60;;;;;;5112887;28;20392;-84
2023/04/05 09:06:11;;;;;;;;;;;16.40;70.60;;;;;;5112720;28;19915;-84
2023/04/05 09:08:37;;;;;;;;;;;16.50;70.80;;;;;;5093570;28;20389;-83
2023/04/05 09:11:03;;;;;;;;;;;16.40;70.90;;;;;;5090032;28;19969;-82
2023/04/05 09:13:28;;;;;;;;;;;16.50;70.80;;;;;;5103690;28;20273;-82
2023/04/05 09:15:54;;;;;;;;;;;16.40;70.70;;;;;;5112825;28;19907;-82
2023/04/05 09:18:20;;;;;;;;;;;16.50;70.80;;;;;;5097700;28;19911;-83
2023/04/05 09:20:45;;;;;;;;;;;16.50;70.70;;;;;;5115542;28;19915;-84
2023/04/05 09:23:11;;;;;;;;;;;16.50;70.70;;;;;;5110576;28;19975;-88
2023/04/05 09:25:38;;;;;;;;;;;16.50;70.70;;;;;;5110992;28;19911;-84
2023/04/05 09:28:04;;;;;;;;;;;16.60;70.60;;;;;;5096463;28;20405;-87
2023/04/05 09:30:31;;;;;;;;;;;16.60;70.50;;;;;;5097430;28;19995;-87
2023/04/05 09:32:57;;;;;;;;;;;16.70;70.40;;;;;;5117011;28;19911;-80
2023/04/05 09:35:29;;;;;;;;;;;16.70;70.30;;;;;;5116532;28;19917;-77
2023/04/05 09:37:58;;;;;;;;;;;16.70;70.20;;;;;;5105214;28;20328;-76
2023/04/05 09:40:38;;;;;;;;;;;16.70;70.20;;;;;;5109820;28;20276;-80
2023/04/05 09:43:04;;;;;;;;;;;16.70;70.20;;;;;;5106589;28;21253;-81
2023/04/05 09:45:31;;;;;;;;;;;16.70;70.20;;;;;;5107732;28;19907;-76
2023/04/05 09:47:56;;;;;;;;;;;16.70;70.20;;;;;;5107732;28;19914;-80
2023/04/05 09:50:22;;;;;;;;;;;16.70;70.20;;;;;;5111881;28;20277;-80
2023/04/05 09:52:48;;;;;;;;;;;16.60;70.20;;;;;;5096352;28;20375;-77
2023/04/05 09:55:14;;;;;;;;;;;16.70;70.20;;;;;;5115611;28;19990;-85
2023/04/05 09:57:40;;;;;;;;;;;16.80;70.20;;;;;;5095727;28;19916;-79
2023/04/05 10:00:08;;;;;;;;;;;16.80;70.20;;;;;;5094818;28;19912;-81
2023/04/05 10:02:36;;;;;;;;;;;16.90;70.10;;;;;;5089171;28;19915;-83
2023/04/05 10:05:05;;;;;;;;;;;16.90;70.00;;;;;;5115902;28;20352;-84
2023/04/05 10:07:31;;;;;;;;;;;17.00;69.90;;;;;;5115486;28;19908;-81
2023/04/05 10:09:57;;;;;;;;;;;17.10;69.90;;;;;;5115781;28;20368;-85
2023/04/05 10:12:25;;;;;;;;;;;17.10;70.30;;;;;;5115366;28;19914;-86
2023/04/05 10:14:50;;;;;;;;;;;17.20;70.00;;;;;;5115851;28;19908;-84
2023/04/05 10:17:31;;;;;;;;;;;17.30;69.60;;;;;;5115597;28;20006;-80
2023/04/05 10:20:02;;;;;;;;;;;17.40;70.40;;;;;;5096237;28;19907;-81
2023/04/05 10:22:32;;;;;;;;;;;17.60;70.20;;;;;;5106390;28;19908;-84
2023/04/05 10:25:02;;;;;;;;;;;17.60;69.80;;;;;;5097887;28;19915;-86
2023/04/05 10:27:38;;;;;;;;;;;17.80;70.20;;;;;;5096755;28;19914;-89
2023/04/05 10:30:04;;;;;;;;;;;17.80;69.40;;;;;;5105662;28;19916;-85
2023/04/05 10:32:32;;;;;;;;;;;17.80;69.20;;;;;;5103098;28;19908;-85
2023/04/05 10:35:07;;;;;;;;;;;17.90;69.20;;;;;;5104488;28;19947;-87
2023/04/05 10:37:39;;;;;;;;;;;17.90;69.10;;;;;;5087697;28;20007;-83
2023/04/05 10:40:07;;;;;;;;;;;17.90;68.90;;;;;;5086027;28;20277;-85
2023/04/05 10:42:44;;;;;;;;;;;17.90;68.80;;;;;;5107007;28;19935;-81
2023/04/05 10:45:11;;;;;;;;;;;17.80;68.70;;;;;;5105274;28;19904;-86
2023/04/05 10:47:40;;;;;;;;;;;17.80;68.70;;;;;;5085013;28;19952;-90
2023/04/05 10:50:08;;;;;;;;;;;17.70;68.70;;;;;;5107898;28;19919;-88
2023/04/05 10:52:34;;;;;;;;;;;17.60;68.70;;;;;;5109685;28;19923;-74
2023/04/05 10:55:02;;;;;;;;;;;17.60;68.80;;;;;;5109910;28;20309;-74
2023/04/05 10:57:28;;;;;;;;;;;17.60;68.50;;;;;;5091126;28;19915;-75
2023/04/05 10:59:54;;;;;;;;;;;17.60;69.00;;;;;;5088694;28;19916;-79
2023/04/05 11:02:19;;;;;;;;;;;17.70;66.50;;;;;;5105745;28;19911;-80
2023/04/05 11:04:45;;;;;;;;;;;17.70;67.40;;;;;;5086902;28;19914;-79
2023/04/05 11:07:11;;;;;;;;;;;17.90;66.50;;;;;;5103903;28;19904;-71
2023/04/05 11:09:37;;;;;;;;;;;18.00;66.90;;;;;;5105445;28;19915;-83
2023/04/05 11:12:02;;;;;;;;;;;18.20;68.30;;;;;;5102895;28;19912;-82
2023/04/05 11:14:35;;;;;;;;;;;18.30;68.20;;;;;;5102443;28;20277;-83
2023/04/05 11:17:01;;;;;;;;;;;18.50;68.00;;;;;;5105212;28;19914;-81
2023/04/05 11:19:42;;;;;;;;;;;18.50;67.80;;;;;;5104475;28;20376;-89
2023/04/05 11:22:12;;;;;;;;;;;18.50;67.70;;;;;;5086255;28;19908;-83
2023/04/05 11:24:52;;;;;;;;;;;18.50;67.60;;;;;;5102220;28;20370;-84
2023/04/05 11:27:23;;;;;;;;;;;18.50;67.60;;;;;;5086945;28;19918;-87
2023/04/05 11:29:49;;;;;;;;;;;18.50;67.60;;;;;;5085460;28;20013;-85
2023/04/05 11:32:15;;;;;;;;;;;18.50;67.60;;;;;;5103466;28;19963;-85
2023/04/05 11:34:41;;;;;;;;;;;18.40;67.60;;;;;;5106535;28;19919;-91
2023/04/05 11:37:07;;;;;;;;;;;18.40;67.60;;;;;;5103199;28;19914;-85
2023/04/05 11:39:32;;;;;;;;;;;18.40;67.60;;;;;;5102711;28;20034;-84
2023/04/05 11:42:14;;;;;;;;;;;18.30;67.60;;;;;;5103589;28;19908;-84
2023/04/05 11:44:41;;;;;;;;;;;18.40;67.60;;;;;;5085418;28;19904;-88
2023/04/05 11:47:07;;;;;;;;;;;18.30;67.60;;;;;;5084549;28;19904;-80
2023/04/05 11:49:33;;;;;;;;;;;18.20;67.60;;;;;;5084090;28;20357;-83
2023/04/05 11:52:08;;;;;;;;;;;18.20;67.70;;;;;;5110125;28;19961;-80
2023/04/05 11:54:33;;;;;;;;;;;18.20;67.90;;;;;;5104631;28;19907;-82
2023/04/05 11:57:00;;;;;;;;;;;18.20;68.40;;;;;;5112539;28;20285;-81
2023/04/05 11:59:33;;;;;;;;;;;18.20;68.40;;;;;;5111000;28;19923;-78
2023/04/05 12:01:59;;;;;;;;;;;18.20;68.30;;;;;;5094363;28;20384;-82
2023/04/05 12:04:24;;;;;;;;;;;18.20;68.20;;;;;;5097171;28;19949;-80
2023/04/05 12:07:07;;;;;;;;;;;18.20;68.00;;;;;;5110172;28;19912;-79
2023/04/05 12:09:32;;;;;;;;;;;18.20;68.00;;;;;;5102746;28;19920;-78
2023/04/05 12:11:58;;;;;;;;;;;18.10;67.90;;;;;;5105380;28;19927;-79
2023/04/05 12:14:23;;;;;;;;;;;18.10;67.90;;;;;;5104032;28;19919;-74
2023/04/05 12:16:49;;;;;;;;;;;18.00;70.80;;;;;;5113534;28;19914;-78
2023/04/05 12:19:15;;;;;;;;;;;18.10;68.30;;;;;;5113453;28;19904;-75
2023/04/05 12:21:40;;;;;;;;;;;18.10;67.10;;;;;;5113309;28;19904;-79
2023/04/05 12:24:06;;;;;;;;;;;18.10;67.50;;;;;;5113676;28;19915;-78
2023/04/05 12:26:33;;;;;;;;;;;18.10;65.60;;;;;;5112970;28;20053;-83
2023/04/05 12:29:02;;;;;;;;;;;18.00;63.00;;;;;;5113308;28;19916;-81
2023/04/05 12:31:36;;;;;;;;;;;18.00;65.00;;;;;;5095036;28;19915;-82
2023/04/05 12:34:02;;;;;;;;;;;17.90;65.80;;;;;;5095058;28;19976;-82
2023/04/05 12:36:28;;;;;;;;;;;17.90;65.30;;;;;;5113387;28;19947;-82
2023/04/05 12:38:54;;;;;;;;;;;17.90;64.90;;;;;;5095401;28;19911;-81
2023/04/05 12:41:26;;;;;;;;;;;17.90;64.80;;;;;;5113305;28;19907;-81
2023/04/05 12:43:57;;;;;;;;;;;17.90;63.40;;;;;;5094835;28;19904;-81
2023/04/05 12:46:37;;;;;;;;;;;17.90;64.20;;;;;;5112313;28;19911;-81
2023/04/05 12:49:03;;;;;;;;;;;17.90;61.20;;;;;;5095277;28;19916;-78
2023/04/05 12:51:30;;;;;;;;;;;17.90;63.40;;;;;;5115964;28;20336;-82
2023/04/05 12:53:55;;;;;;;;;;;17.90;64.40;;;;;;5117137;28;19908;-83
2023/04/05 12:56:21;;;;;;;;;;;17.90;63.10;;;;;;5116971;28;20333;-81
2023/04/05 12:58:48;;;;;;;;;;;17.90;63.00;;;;;;5117063;28;19919;-81
2023/04/05 13:01:14;;;;;;;;;;;17.90;61.40;;;;;;5099259;28;19908;-81
2023/04/05 13:03:42;;;;;;;;;;;17.90;62.00;;;;;;5099005;28;20250;-81
2023/04/05 13:06:07;;;;;;;;;;;17.90;62.10;;;;;;5117170;28;19977;-82
2023/04/05 13:08:33;;;;;;;;;;;17.90;61.90;;;;;;5116895;28;19903;-81
2023/04/05 13:10:59;;;;;;;;;;;17.90;62.70;;;;;;5117333;28;19918;-82
2023/04/05 13:13:25;;;;;;;;;;;17.80;62.90;;;;;;5117579;28;19999;-82
2023/04/05 13:15:50;;;;;;;;;;;17.80;63.40;;;;;;5098809;28;19957;-81
2023/04/05 13:18:16;;;;;;;;;;;17.70;61.80;;;;;;5098617;28;19914;-82
2023/04/05 13:20:41;;;;;;;;;;;17.60;63.10;;;;;;5098844;28;19908;-82
2023/04/05 13:23:09;;;;;;;;;;;17.70;63.10;;;;;;5097906;28;20713;-82
2023/04/05 13:25:39;;;;;;;;;;;17.60;62.70;;;;;;5116895;28;19907;-82
2023/04/05 13:28:04;;;;;;;;;;;17.60;63.40;;;;;;5098449;28;19908;-82
2023/04/05 13:30:30;;;;;;;;;;;17.50;63.10;;;;;;5116868;28;19918;-82
2023/04/05 13:32:56;;;;;;;;;;;17.50;62.70;;;;;;5117081;28;20304;-81
2023/04/05 13:35:21;;;;;;;;;;;17.50;63.00;;;;;;5116218;28;19964;-79
2023/04/05 13:37:48;;;;;;;;;;;17.40;63.10;;;;;;5116784;28;19903;-81
2023/04/05 13:40:15;;;;;;;;;;;17.40;63.50;;;;;;5098075;28;19903;-82
2023/04/05 13:42:40;;;;;;;;;;;17.40;63.90;;;;;;5098081;28;20375;-81
2023/04/05 13:45:06;;;;;;;;;;;17.40;62.80;;;;;;5115655;28;19912;-81
2023/04/05 13:47:32;;;;;;;;;;;17.40;63.10;;;;;;5116329;28;20038;-82
2023/04/05 13:49:57;;;;;;;;;;;17.40;63.50;;;;;;5116679;28;20380;-82
2023/04/05 13:52:24;;;;;;;;;;;17.30;63.50;;;;;;5116214;28;19903;-82
2023/04/05 13:54:50;;;;;;;;;;;17.30;63.50;;;;;;5115819;28;20388;-79
2023/04/05 13:57:15;;;;;;;;;;;17.30;63.90;;;;;;5116523;28;19962;-82
2023/04/05 13:59:41;;;;;;;;;;;17.30;64.00;;;;;;5116372;28;20350;-81
2023/04/05 14:02:06;;;;;;;;;;;17.40;63.90;;;;;;5097255;28;19904;-81
2023/04/05 14:04:32;;;;;;;;;;;17.40;63.80;;;;;;5096758;28;20805;-81
2023/04/05 14:06:58;;;;;;;;;;;17.40;63.90;;;;;;5114897;28;19914;-82
2023/04/05 14:09:23;;;;;;;;;;;17.40;63.60;;;;;;5077223;28;19912;-82
2023/04/05 14:11:49;;;;;;;;;;;17.40;64.00;;;;;;5095163;28;19914;-81
2023/04/05 14:14:15;;;;;;;;;;;17.40;63.30;;;;;;5095388;28;19911;-80
2023/04/05 14:16:40;;;;;;;;;;;17.40;63.70;;;;;;5101457;28;19908;-82